sensor_id;sensor_type;location;lat;lon;timestamp;pressure;altitude;pressure_sealevel;temperature;humidity
10310;BME280;5200;43.236;27.986;2023-04-01T00:01:50;99226.66;;;10.67;100.00
10310;BME280;5200;43.236;27.986;2023-04-01T00:04:17;99218.91;;;10.65;100.00
10310;BME280;5200;43.236;27.986;2023-04-01T00:06:44;99224.38;;;10.72;100.00
10310;BME280;5200;43.236;27.986;2023-04-01T00:09:14;99220.78;;;10.73;100.00
10310;BME280;5200;43.236;27.986;2023-04-01T00:11:41;99218.81;;;10.75;100.00
10310;BME280;5200;43.236;27.986;2023-04-01T00:14:08;99209.44;;;10.72;100.00
10310;BME280;5200;43.236;27.986;2023-04-01T00:16:35;99205.81;;;10.73;100.00
10310;BME280;5200;43.236;27.986;2023-04-01T00:19:02;99212.56;;;10.76;100.00
10310;BME280;5200;43.236;27.986;2023-04-01T00:21:29;99203.97;;;10.66;100.00
10310;BME280;5200;43.236;27.986;2023-04-01T00:23:56;99214.38;;;10.75;100.00
10310;BME280;5200;43.236;27.986;2023-04-01T00:26:26;99217.81;;;10.76;100.00
10310;BME280;5200;43.236;27.986;2023-04-01T00:28:52;99211.91;;;10.74;100.00
10310;BME280;5200;43.236;27.986;2023-04-01T00:31:20;99208.28;;;10.75;100.00
10310;BME280;5200;43.236;27.986;2023-04-01T00:33:47;99208.94;;;10.77;100.00
10310;BME280;5200;43.236;27.986;2023-04-01T00:36:15;99203.03;;;10.75;100.00
10310;BME280;5200;43.236;27.986;2023-04-01T00:38:42;99204.00;;;10.74;100.00
10310;BME280;5200;43.236;27.986;2023-04-01T00:41:11;99197.25;;;10.71;100.00
10310;BME280;5200;43.236;27.986;2023-04-01T00:43:41;99196.59;;;10.69;100.00
10310;BME280;5200;43.236;27.986;2023-04-01T00:46:08;99199.06;;;10.71;100.00
10310;BME280;5200;43.236;27.986;2023-04-01T00:48:36;99188.69;;;10.69;100.00
10310;BME280;5200;43.236;27.986;2023-04-01T00:51:06;99184.56;;;10.67;100.00
10310;BME280;5200;43.236;27.986;2023-04-01T00:53:36;99189.50;;;10.70;100.00
10310;BME280;5200;43.236;27.986;2023-04-01T00:56:09;99193.66;;;10.72;100.00
10310;BME280;5200;43.236;27.986;2023-04-01T00:58:40;99212.22;;;10.71;100.00
10310;BME280;5200;43.236;27.986;2023-04-01T01:01:09;99200.88;;;10.18;100.00
10310;BME280;5200;43.236;27.986;2023-04-01T01:03:36;99182.63;;;9.64;100.00
10310;BME280;5200;43.236;27.986;2023-04-01T01:06:24;99207.72;;;9.31;100.00
10310;BME280;5200;43.236;27.986;2023-04-01T01:09:10;99204.38;;;8.93;100.00
10310;BME280;5200;43.236;27.986;2023-04-01T01:11:42;99203.44;;;8.57;100.00
10310;BME280;5200;43.236;27.986;2023-04-01T01:14:19;99198.09;;;8.39;100.00
10310;BME280;5200;43.236;27.986;2023-04-01T01:16:54;99191.00;;;8.21;100.00
10310;BME280;5200;43.236;27.986;2023-04-01T01:19:57;99210.19;;;8.12;100.00
10310;BME280;5200;43.236;27.986;2023-04-01T01:22:52;99213.25;;;7.98;100.00
10310;BME280;5200;43.236;27.986;2023-04-01T01:25:32;99207.72;;;7.91;100.00
10310;BME280;5200;43.236;27.986;2023-04-01T01:28:15;99209.66;;;7.89;100.00
10310;BME280;5200;43.236;27.986;2023-04-01T01:30:54;99188.75;;;7.70;100.00
10310;BME280;5200;43.236;27.986;2023-04-01T01:33:35;99183.91;;;7.75;100.00
10310;BME280;5200;43.236;27.986;2023-04-01T01:36:09;99183.50;;;7.70;100.00
10310;BME280;5200;43.236;27.986;2023-04-01T01:38:38;99183.50;;;7.70;100.00
10310;BME280;5200;43.236;27.986;2023-04-01T01:41:07;99158.16;;;7.51;100.00
10310;BME280;5200;43.236;27.986;2023-04-01T01:43:37;99175.50;;;7.61;100.00
10310;BME280;5200;43.236;27.986;2023-04-01T01:46:07;99169.03;;;7.56;100.00
10310;BME280;5200;43.236;27.986;2023-04-01T01:48:37;99168.63;;;7.60;100.00
10310;BME280;5200;43.236;27.986;2023-04-01T01:51:05;99182.41;;;7.72;100.00
10310;BME280;5200;43.236;27.986;2023-04-01T01:53:33;99189.69;;;7.69;100.00
10310;BME280;5200;43.236;27.986;2023-04-01T01:56:00;99183.50;;;7.70;100.00
10310;BME280;5200;43.236;27.986;2023-04-01T01:58:29;99190.53;;;7.79;100.00
10310;BME280;5200;43.236;27.986;2023-04-01T02:00:59;99196.84;;;7.86;100.00
10310;BME280;5200;43.236;27.986;2023-04-01T02:03:28;99193.66;;;7.92;100.00
10310;BME280;5200;43.236;27.986;2023-04-01T02:05:58;99194.75;;;7.99;100.00
10310;BME280;5200;43.236;27.986;2023-04-01T02:08:28;99186.72;;;8.11;100.00
10310;BME280;5200;43.236;27.986;2023-04-01T02:11:01;99159.56;;;8.12;100.00
10310;BME280;5200;43.236;27.986;2023-04-01T02:13:31;99158.13;;;8.27;100.00
10310;BME280;5200;43.236;27.986;2023-04-01T02:16:06;99152.41;;;8.51;100.00
10310;BME280;5200;43.236;27.986;2023-04-01T02:18:36;99161.16;;;8.70;100.00
10310;BME280;5200;43.236;27.986;2023-04-01T02:21:05;99153.91;;;8.81;100.00
10310;BME280;5200;43.236;27.986;2023-04-01T02:23:33;99148.75;;;8.89;100.00
10310;BME280;5200;43.236;27.986;2023-04-01T02:26:04;99148.84;;;8.98;100.00
10310;BME280;5200;43.236;27.986;2023-04-01T02:28:32;99150.19;;;9.02;100.00
10310;BME280;5200;43.236;27.986;2023-04-01T02:31:00;99150.56;;;9.07;100.00
10310;BME280;5200;43.236;27.986;2023-04-01T02:33:30;99141.44;;;9.11;100.00
10310;BME280;5200;43.236;27.986;2023-04-01T02:35:57;99152.88;;;9.10;100.00
10310;BME280;5200;43.236;27.986;2023-04-01T02:38:24;99153.06;;;9.08;100.00
10310;BME280;5200;43.236;27.986;2023-04-01T02:40:57;99153.19;;;9.07;100.00
10310;BME280;5200;43.236;27.986;2023-04-01T02:43:25;99139.47;;;8.95;100.00
10310;BME280;5200;43.236;27.986;2023-04-01T02:45:52;99146.72;;;8.83;100.00
10310;BME280;5200;43.236;27.986;2023-04-01T02:48:19;99140.09;;;8.79;100.00
10310;BME280;5200;43.236;27.986;2023-04-01T02:50:46;99137.34;;;8.81;100.00
10310;BME280;5200;43.236;27.986;2023-04-01T02:53:13;99118.91;;;8.73;100.00
10310;BME280;5200;43.236;27.986;2023-04-01T02:55:39;99124.09;;;8.82;100.00
10310;BME280;5200;43.236;27.986;2023-04-01T02:58:06;99136.31;;;8.92;100.00
10310;BME280;5200;43.236;27.986;2023-04-01T03:00:35;99128.97;;;8.95;100.00
10310;BME280;5200;43.236;27.986;2023-04-01T03:03:01;99122.59;;;8.98;100.00
10310;BME280;5200;43.236;27.986;2023-04-01T03:05:29;99103.84;;;8.93;100.00
10310;BME280;5200;43.236;27.986;2023-04-01T03:07:55;99119.53;;;9.02;100.00
10310;BME280;5200;43.236;27.986;2023-04-01T03:10:22;99090.50;;;8.86;100.00
10310;BME280;5200;43.236;27.986;2023-04-01T03:12:49;99119.00;;;8.99;100.00
10310;BME280;5200;43.236;27.986;2023-04-01T03:15:16;99123.97;;;9.02;100.00
10310;BME280;5200;43.236;27.986;2023-04-01T03:17:44;99113.47;;;9.02;100.00
10310;BME280;5200;43.236;27.986;2023-04-01T03:20:13;99116.53;;;8.97;100.00
10310;BME280;5200;43.236;27.986;2023-04-01T03:22:40;99121.91;;;8.96;100.00
10310;BME280;5200;43.236;27.986;2023-04-01T03:25:07;99114.94;;;8.86;100.00
10310;BME280;5200;43.236;27.986;2023-04-01T03:27:35;99103.69;;;8.76;100.00
10310;BME280;5200;43.236;27.986;2023-04-01T03:30:02;99109.94;;;8.75;100.00
10310;BME280;5200;43.236;27.986;2023-04-01T03:32:29;99083.91;;;8.64;100.00
10310;BME280;5200;43.236;27.986;2023-04-01T03:34:58;99098.50;;;8.66;100.00
10310;BME280;5200;43.236;27.986;2023-04-01T03:37:25;99092.44;;;8.66;100.00
10310;BME280;5200;43.236;27.986;2023-04-01T03:39:51;99101.56;;;8.62;100.00
10310;BME280;5200;43.236;27.986;2023-04-01T03:42:18;99096.53;;;8.51;100.00
10310;BME280;5200;43.236;27.986;2023-04-01T03:44:45;99103.34;;;8.43;100.00
10310;BME280;5200;43.236;27.986;2023-04-01T03:47:12;99111.88;;;8.45;100.00
10310;BME280;5200;43.236;27.986;2023-04-01T03:49:39;99106.63;;;8.45;100.00
10310;BME280;5200;43.236;27.986;2023-04-01T03:52:09;99096.84;;;8.48;100.00
10310;BME280;5200;43.236;27.986;2023-04-01T03:54:37;99108.91;;;8.58;100.00
10310;BME280;5200;43.236;27.986;2023-04-01T03:57:03;99073.81;;;8.41;100.00
10310;BME280;5200;43.236;27.986;2023-04-01T03:59:30;99107.38;;;8.65;100.00
10310;BME280;5200;43.236;27.986;2023-04-01T04:01:57;99113.13;;;8.69;100.00
10310;BME280;5200;43.236;27.986;2023-04-01T04:04:24;99113.66;;;8.73;100.00
10310;BME280;5200;43.236;27.986;2023-04-01T04:06:51;99104.88;;;8.64;100.00
10310;BME280;5200;43.236;27.986;2023-04-01T04:09:19;99117.38;;;8.70;100.00
10310;BME280;5200;43.236;27.986;2023-04-01T04:11:46;99116.13;;;8.74;100.00
10310;BME280;5200;43.236;27.986;2023-04-01T04:14:13;99121.91;;;8.78;100.00
10310;BME280;5200;43.236;27.986;2023-04-01T04:16:39;99116.22;;;8.82;100.00
10310;BME280;5200;43.236;27.986;2023-04-01T04:19:06;99111.34;;;8.87;100.00
10310;BME280;5200;43.236;27.986;2023-04-01T04:21:33;99087.06;;;8.85;100.00
10310;BME280;5200;43.236;27.986;2023-04-01T04:24:00;99091.22;;;9.06;100.00
10310;BME280;5200;43.236;27.986;2023-04-01T04:26:28;99098.69;;;9.19;100.00
10310;BME280;5200;43.236;27.986;2023-04-01T04:28:55;99090.34;;;9.23;100.00
10310;BME280;5200;43.236;27.986;2023-04-01T04:31:24;99092.16;;;9.41;100.00
10310;BME280;5200;43.236;27.986;2023-04-01T04:33:52;99095.56;;;9.59;100.00
10310;BME280;5200;43.236;27.986;2023-04-01T04:36:19;99088.97;;;9.81;100.00
10310;BME280;5200;43.236;27.986;2023-04-01T04:38:47;99092.75;;;10.13;100.00
10310;BME280;5200;43.236;27.986;2023-04-01T04:41:17;99085.88;;;10.54;100.00
10310;BME280;5200;43.236;27.986;2023-04-01T04:43:51;99088.59;;;10.95;100.00
10310;BME280;5200;43.236;27.986;2023-04-01T04:46:18;99093.06;;;11.28;100.00
10310;BME280;5200;43.236;27.986;2023-04-01T04:48:45;99070.22;;;11.36;100.00
10310;BME280;5200;43.236;27.986;2023-04-01T04:51:16;99079.41;;;11.49;100.00
10310;BME280;5200;43.236;27.986;2023-04-01T04:53:43;99074.78;;;11.59;100.00
10310;BME280;5200;43.236;27.986;2023-04-01T04:56:11;99071.66;;;11.72;100.00
10310;BME280;5200;43.236;27.986;2023-04-01T04:58:38;99068.47;;;11.84;100.00
10310;BME280;5200;43.236;27.986;2023-04-01T05:01:08;99083.63;;;12.07;100.00
10310;BME280;5200;43.236;27.986;2023-04-01T05:03:36;99081.38;;;12.27;100.00
10310;BME280;5200;43.236;27.986;2023-04-01T05:06:04;99082.69;;;12.39;100.00
10310;BME280;5200;43.236;27.986;2023-04-01T05:08:31;99084.44;;;12.47;100.00
10310;BME280;5200;43.236;27.986;2023-04-01T05:10:59;99082.47;;;12.49;100.00
10310;BME280;5200;43.236;27.986;2023-04-01T05:13:26;99087.63;;;12.34;100.00
10310;BME280;5200;43.236;27.986;2023-04-01T05:15:53;99076.97;;;12.19;100.00
10310;BME280;5200;43.236;27.986;2023-04-01T05:18:22;99071.75;;;12.03;100.00
10310;BME280;5200;43.236;27.986;2023-04-01T05:20:50;99073.28;;;11.97;100.00
10310;BME280;5200;43.236;27.986;2023-04-01T05:23:18;99072.63;;;11.87;100.00
10310;BME280;5200;43.236;27.986;2023-04-01T05:25:46;99062.53;;;11.82;100.00
10310;BME280;5200;43.236;27.986;2023-04-01T05:28:14;99069.16;;;11.78;100.00
10310;BME280;5200;43.236;27.986;2023-04-01T05:30:41;99067.50;;;11.77;100.00
10310;BME280;5200;43.236;27.986;2023-04-01T05:33:08;99063.22;;;11.84;100.00
10310;BME280;5200;43.236;27.986;2023-04-01T05:35:36;99058.47;;;11.88;100.00
10310;BME280;5200;43.236;27.986;2023-04-01T05:38:03;99049.41;;;11.91;100.00
10310;BME280;5200;43.236;27.986;2023-04-01T05:40:31;99051.22;;;11.90;100.00
10310;BME280;5200;43.236;27.986;2023-04-01T05:42:58;99056.94;;;12.02;100.00
10310;BME280;5200;43.236;27.986;2023-04-01T05:45:25;99041.59;;;12.05;100.00
10310;BME280;5200;43.236;27.986;2023-04-01T05:47:53;99048.97;;;12.18;100.00
10310;BME280;5200;43.236;27.986;2023-04-01T05:50:20;99032.94;;;12.28;100.00
10310;BME280;5200;43.236;27.986;2023-04-01T05:52:48;99037.28;;;12.44;100.00
10310;BME280;5200;43.236;27.986;2023-04-01T05:55:15;99033.22;;;12.64;100.00
10310;BME280;5200;43.236;27.986;2023-04-01T05:57:41;99027.97;;;12.87;100.00
10310;BME280;5200;43.236;27.986;2023-04-01T06:00:09;99024.25;;;13.20;100.00
10310;BME280;5200;43.236;27.986;2023-04-01T06:02:36;99015.94;;;13.46;100.00
10310;BME280;5200;43.236;27.986;2023-04-01T06:05:13;99026.72;;;13.74;100.00
10310;BME280;5200;43.236;27.986;2023-04-01T06:07:40;99019.50;;;13.98;98.98
10310;BME280;5200;43.236;27.986;2023-04-01T06:10:12;99020.47;;;14.26;96.68
10310;BME280;5200;43.236;27.986;2023-04-01T06:12:47;99018.50;;;14.50;95.22
10310;BME280;5200;43.236;27.986;2023-04-01T06:15:22;99002.56;;;14.58;93.12
10310;BME280;5200;43.236;27.986;2023-04-01T06:18:03;99014.34;;;14.77;91.71
10310;BME280;5200;43.236;27.986;2023-04-01T06:20:41;99012.75;;;14.83;91.09
10310;BME280;5200;43.236;27.986;2023-04-01T06:23:35;99018.16;;;14.74;91.31
10310;BME280;5200;43.236;27.986;2023-04-01T06:26:18;99010.09;;;14.61;90.43
10310;BME280;5200;43.236;27.986;2023-04-01T06:28:59;99010.31;;;14.45;90.89
10310;BME280;5200;43.236;27.986;2023-04-01T06:31:56;99011.72;;;14.26;92.74
10310;BME280;5200;43.236;27.986;2023-04-01T06:34:39;99012.31;;;14.06;93.04
10310;BME280;5200;43.236;27.986;2023-04-01T06:37:22;98993.34;;;13.73;94.53
10310;BME280;5200;43.236;27.986;2023-04-01T06:42:52;98990.34;;;13.23;97.95
10310;BME280;5200;43.236;27.986;2023-04-01T06:45:30;98966.81;;;12.99;98.65
10310;BME280;5200;43.236;27.986;2023-04-01T06:48:10;99005.38;;;13.23;99.65
10310;BME280;5200;43.236;27.986;2023-04-01T06:50:47;98994.81;;;13.23;100.00
10310;BME280;5200;43.236;27.986;2023-04-01T06:53:20;98999.63;;;13.19;100.00
10310;BME280;5200;43.236;27.986;2023-04-01T06:55:51;98990.25;;;13.17;100.00
10310;BME280;5200;43.236;27.986;2023-04-01T06:58:23;98985.28;;;13.22;100.00
10310;BME280;5200;43.236;27.986;2023-04-01T07:00:54;98988.50;;;13.09;100.00
10310;BME280;5200;43.236;27.986;2023-04-01T07:03:29;98991.44;;;13.14;100.00
10310;BME280;5200;43.236;27.986;2023-04-01T07:06:02;98987.72;;;13.23;100.00
10310;BME280;5200;43.236;27.986;2023-04-01T07:08:33;98991.09;;;13.17;100.00
10310;BME280;5200;43.236;27.986;2023-04-01T07:11:04;99001.00;;;13.38;100.00
10310;BME280;5200;43.236;27.986;2023-04-01T07:13:36;99004.91;;;13.42;100.00
10310;BME280;5200;43.236;27.986;2023-04-01T07:16:12;98996.59;;;13.30;100.00
10310;BME280;5200;43.236;27.986;2023-04-01T07:18:45;99013.47;;;13.44;100.00
10310;BME280;5200;43.236;27.986;2023-04-01T07:21:22;99001.28;;;13.58;100.00
10310;BME280;5200;43.236;27.986;2023-04-01T07:23:50;98994.44;;;13.79;100.00
10310;BME280;5200;43.236;27.986;2023-04-01T07:26:20;98999.63;;;14.02;100.00
10310;BME280;5200;43.236;27.986;2023-04-01T07:28:51;98991.22;;;14.13;100.00
10310;BME280;5200;43.236;27.986;2023-04-01T07:31:45;98992.88;;;14.14;100.00
10310;BME280;5200;43.236;27.986;2023-04-01T07:34:20;98994.25;;;13.95;100.00
10310;BME280;5200;43.236;27.986;2023-04-01T07:36:54;98985.97;;;13.83;100.00
10310;BME280;5200;43.236;27.986;2023-04-01T07:39:33;98995.69;;;13.83;100.00
10310;BME280;5200;43.236;27.986;2023-04-01T07:42:09;98983.06;;;13.78;100.00
10310;BME280;5200;43.236;27.986;2023-04-01T07:44:51;98980.22;;;13.80;100.00
10310;BME280;5200;43.236;27.986;2023-04-01T07:47:34;98984.69;;;13.79;100.00
10310;BME280;5200;43.236;27.986;2023-04-01T07:50:11;98977.41;;;13.81;100.00
10310;BME280;5200;43.236;27.986;2023-04-01T07:52:45;98974.94;;;13.80;100.00
10310;BME280;5200;43.236;27.986;2023-04-01T07:55:20;98982.03;;;13.79;100.00
10310;BME280;5200;43.236;27.986;2023-04-01T07:57:55;98970.84;;;13.77;100.00
10310;BME280;5200;43.236;27.986;2023-04-01T08:00:28;98972.50;;;13.78;100.00
10310;BME280;5200;43.236;27.986;2023-04-01T08:03:16;98967.00;;;13.65;100.00
10310;BME280;5200;43.236;27.986;2023-04-01T08:05:49;98958.81;;;13.60;100.00
10310;BME280;5200;43.236;27.986;2023-04-01T08:08:32;98950.16;;;13.51;100.00
10310;BME280;5200;43.236;27.986;2023-04-01T08:11:11;98935.59;;;13.55;100.00
10310;BME280;5200;43.236;27.986;2023-04-01T08:13:44;98946.50;;;13.82;100.00
10310;BME280;5200;43.236;27.986;2023-04-01T08:16:20;98940.41;;;14.17;100.00
10310;BME280;5200;43.236;27.986;2023-04-01T08:18:55;98941.22;;;14.54;100.00
10310;BME280;5200;43.236;27.986;2023-04-01T08:21:25;98935.59;;;14.64;100.00
10310;BME280;5200;43.236;27.986;2023-04-01T08:23:56;98933.34;;;14.61;100.00
10310;BME280;5200;43.236;27.986;2023-04-01T08:26:29;98927.66;;;14.64;100.00
10310;BME280;5200;43.236;27.986;2023-04-01T08:29:00;98936.63;;;14.63;100.00
10310;BME280;5200;43.236;27.986;2023-04-01T08:31:33;98907.34;;;14.50;100.00
10310;BME280;5200;43.236;27.986;2023-04-01T08:34:05;98931.97;;;14.65;100.00
10310;BME280;5200;43.236;27.986;2023-04-01T08:36:40;98922.59;;;14.69;100.00
10310;BME280;5200;43.236;27.986;2023-04-01T08:39:15;98921.78;;;14.69;100.00
10310;BME280;5200;43.236;27.986;2023-04-01T08:41:58;98917.41;;;14.54;100.00
10310;BME280;5200;43.236;27.986;2023-04-01T08:44:41;98926.00;;;14.42;100.00
10310;BME280;5200;43.236;27.986;2023-04-01T08:47:34;98922.19;;;14.29;100.00
10310;BME280;5200;43.236;27.986;2023-04-01T08:50:30;98921.81;;;14.11;100.00
10310;BME280;5200;43.236;27.986;2023-04-01T08:53:06;98921.63;;;14.12;100.00
10310;BME280;5200;43.236;27.986;2023-04-01T08:55:45;98923.53;;;14.19;100.00
10310;BME280;5200;43.236;27.986;2023-04-01T08:58:42;98914.00;;;14.24;100.00
10310;BME280;5200;43.236;27.986;2023-04-01T09:01:20;98912.25;;;14.31;100.00
10310;BME280;5200;43.236;27.986;2023-04-01T09:04:05;98913.53;;;14.35;100.00
10310;BME280;5200;43.236;27.986;2023-04-01T09:06:50;98906.84;;;14.40;100.00
10310;BME280;5200;43.236;27.986;2023-04-01T09:09:49;98907.50;;;14.63;100.00
10310;BME280;5200;43.236;27.986;2023-04-01T09:12:38;98893.88;;;15.22;100.00
10310;BME280;5200;43.236;27.986;2023-04-01T09:15:53;98889.91;;;15.47;100.00
10310;BME280;5200;43.236;27.986;2023-04-01T09:18:49;98886.09;;;15.56;99.82
10310;BME280;5200;43.236;27.986;2023-04-01T09:21:32;98867.94;;;15.53;99.36
10310;BME280;5200;43.236;27.986;2023-04-01T09:24:26;98882.06;;;15.67;98.52
10310;BME280;5200;43.236;27.986;2023-04-01T09:27:03;98887.75;;;15.57;98.41
10310;BME280;5200;43.236;27.986;2023-04-01T09:35:23;98880.44;;;15.24;99.73
10310;BME280;5200;43.236;27.986;2023-04-01T09:38:03;98875.59;;;14.99;100.00
10310;BME280;5200;43.236;27.986;2023-04-01T09:40:45;98870.72;;;15.03;100.00
10310;BME280;5200;43.236;27.986;2023-04-01T09:43:25;98868.66;;;14.98;100.00
10310;BME280;5200;43.236;27.986;2023-04-01T09:46:03;98857.16;;;14.85;100.00
10310;BME280;5200;43.236;27.986;2023-04-01T09:48:51;98847.03;;;14.67;100.00
10310;BME280;5200;43.236;27.986;2023-04-01T09:51:28;98857.91;;;14.78;100.00
10310;BME280;5200;43.236;27.986;2023-04-01T09:54:08;98852.84;;;14.84;100.00
10310;BME280;5200;43.236;27.986;2023-04-01T09:57:10;98835.00;;;14.92;100.00
10310;BME280;5200;43.236;27.986;2023-04-01T10:06:07;98824.88;;;15.44;100.00
10310;BME280;5200;43.236;27.986;2023-04-01T10:21:22;98788.56;;;16.13;98.43
10310;BME280;5200;43.236;27.986;2023-04-01T10:24:18;98787.34;;;16.09;98.05
10310;BME280;5200;43.236;27.986;2023-04-01T10:27:21;98784.66;;;15.95;97.84
10310;BME280;5200;43.236;27.986;2023-04-01T10:33:25;98786.06;;;15.84;98.23
10310;BME280;5200;43.236;27.986;2023-04-01T10:42:16;98764.66;;;15.86;99.60
10310;BME280;5200;43.236;27.986;2023-04-01T10:45:20;98780.59;;;16.13;97.93
10310;BME280;5200;43.236;27.986;2023-04-01T10:51:07;98750.44;;;15.39;100.00
10310;BME280;5200;43.236;27.986;2023-04-01T10:56:38;98780.34;;;15.26;100.00
10310;BME280;5200;43.236;27.986;2023-04-01T10:59:32;98755.66;;;15.12;100.00
10310;BME280;5200;43.236;27.986;2023-04-01T11:05:36;98755.56;;;15.40;100.00
10310;BME280;5200;43.236;27.986;2023-04-01T11:08:41;98729.50;;;15.57;100.00
10310;BME280;5200;43.236;27.986;2023-04-01T11:23:54;98730.38;;;16.31;98.86
10310;BME280;5200;43.236;27.986;2023-04-01T11:26:33;98708.50;;;16.56;97.60
10310;BME280;5200;43.236;27.986;2023-04-01T11:29:26;98709.41;;;16.95;95.83
10310;BME280;5200;43.236;27.986;2023-04-01T11:32:03;98684.22;;;17.10;94.50
10310;BME280;5200;43.236;27.986;2023-04-01T11:34:55;98713.72;;;17.41;93.11
10310;BME280;5200;43.236;27.986;2023-04-01T11:37:35;98717.34;;;17.46;92.37
10310;BME280;5200;43.236;27.986;2023-04-01T11:40:17;98712.50;;;17.37;90.96
10310;BME280;5200;43.236;27.986;2023-04-01T11:42:54;98713.53;;;17.36;91.22
10310;BME280;5200;43.236;27.986;2023-04-01T11:45:35;98715.38;;;17.35;90.73
10310;BME280;5200;43.236;27.986;2023-04-01T11:48:24;98714.59;;;17.28;90.96
10310;BME280;5200;43.236;27.986;2023-04-01T11:51:20;98709.84;;;16.98;92.51
10310;BME280;5200;43.236;27.986;2023-04-01T11:53:59;98713.38;;;16.59;95.32
10310;BME280;5200;43.236;27.986;2023-04-01T11:56:41;98706.84;;;16.68;96.38
10310;BME280;5200;43.236;27.986;2023-04-01T11:59:55;98699.19;;;16.98;96.16
10310;BME280;5200;43.236;27.986;2023-04-01T12:02:29;98688.88;;;17.22;93.08
10310;BME280;5200;43.236;27.986;2023-04-01T12:05:19;98667.22;;;17.18;93.06
10310;BME280;5200;43.236;27.986;2023-04-01T12:07:55;98675.31;;;17.30;92.66
10310;BME280;5200;43.236;27.986;2023-04-01T12:10:35;98686.22;;;17.53;91.62
10310;BME280;5200;43.236;27.986;2023-04-01T12:13:14;98690.72;;;17.53;89.74
10310;BME280;5200;43.236;27.986;2023-04-01T12:15:58;98684.84;;;17.44;90.95
10310;BME280;5200;43.236;27.986;2023-04-01T12:18:36;98686.50;;;17.45;90.87
10310;BME280;5200;43.236;27.986;2023-04-01T12:21:14;98689.09;;;17.52;90.71
10310;BME280;5200;43.236;27.986;2023-04-01T12:27:04;98673.66;;;17.36;91.45
10310;BME280;5200;43.236;27.986;2023-04-01T12:29:48;98662.44;;;17.33;91.97
10310;BME280;5200;43.236;27.986;2023-04-01T12:32:25;98664.56;;;17.11;92.07
10310;BME280;5200;43.236;27.986;2023-04-01T12:35:10;98679.50;;;17.13;92.96
10310;BME280;5200;43.236;27.986;2023-04-01T12:37:42;98678.03;;;17.17;92.82
10310;BME280;5200;43.236;27.986;2023-04-01T12:40:31;98681.09;;;17.20;92.32
10310;BME280;5200;43.236;27.986;2023-04-01T12:43:34;98685.19;;;17.16;92.02
10310;BME280;5200;43.236;27.986;2023-04-01T12:46:13;98684.28;;;16.97;91.92
10310;BME280;5200;43.236;27.986;2023-04-01T12:49:15;98671.00;;;16.90;93.20
10310;BME280;5200;43.236;27.986;2023-04-01T12:51:55;98671.78;;;17.04;92.50
10310;BME280;5200;43.236;27.986;2023-04-01T12:55:06;98679.53;;;17.06;92.33
10310;BME280;5200;43.236;27.986;2023-04-01T12:57:52;98669.47;;;16.63;94.60
10310;BME280;5200;43.236;27.986;2023-04-01T13:00:38;98650.38;;;15.68;100.00
10310;BME280;5200;43.236;27.986;2023-04-01T13:03:25;98664.38;;;15.28;100.00
10310;BME280;5200;43.236;27.986;2023-04-01T13:06:24;98675.09;;;15.00;100.00
10310;BME280;5200;43.236;27.986;2023-04-01T13:09:00;98674.91;;;14.95;100.00
10310;BME280;5200;43.236;27.986;2023-04-01T13:11:39;98646.75;;;14.87;100.00
10310;BME280;5200;43.236;27.986;2023-04-01T13:17:14;98639.66;;;14.53;100.00
10310;BME280;5200;43.236;27.986;2023-04-01T13:19:48;98646.16;;;14.15;100.00
10310;BME280;5200;43.236;27.986;2023-04-01T13:22:21;98647.00;;;14.16;100.00
10310;BME280;5200;43.236;27.986;2023-04-01T13:24:52;98632.66;;;14.04;100.00
10310;BME280;5200;43.236;27.986;2023-04-01T13:27:29;98625.28;;;13.92;100.00
10310;BME280;5200;43.236;27.986;2023-04-01T13:30:05;98610.06;;;13.73;100.00
10310;BME280;5200;43.236;27.986;2023-04-01T13:32:44;98618.25;;;13.78;100.00
10310;BME280;5200;43.236;27.986;2023-04-01T13:35:26;98626.94;;;13.72;100.00
10310;BME280;5200;43.236;27.986;2023-04-01T13:38:18;98617.81;;;13.74;100.00
10310;BME280;5200;43.236;27.986;2023-04-01T13:40:54;98609.78;;;13.89;100.00
10310;BME280;5200;43.236;27.986;2023-04-01T13:43:31;98622.16;;;14.17;100.00
10310;BME280;5200;43.236;27.986;2023-04-01T13:46:17;98621.94;;;14.47;100.00
10310;BME280;5200;43.236;27.986;2023-04-01T13:49:14;98596.00;;;14.70;100.00
10310;BME280;5200;43.236;27.986;2023-04-01T13:52:03;98580.97;;;14.97;100.00
10310;BME280;5200;43.236;27.986;2023-04-01T13:55:01;98610.59;;;15.41;100.00
10310;BME280;5200;43.236;27.986;2023-04-01T13:57:42;98605.28;;;15.54;100.00
10310;BME280;5200;43.236;27.986;2023-04-01T14:00:25;98575.31;;;15.47;100.00
10310;BME280;5200;43.236;27.986;2023-04-01T14:03:10;98582.91;;;15.77;100.00
10310;BME280;5200;43.236;27.986;2023-04-01T14:05:52;98615.09;;;16.07;100.00
10310;BME280;5200;43.236;27.986;2023-04-01T14:08:39;98588.56;;;16.00;100.00
10310;BME280;5200;43.236;27.986;2023-04-01T14:11:17;98613.66;;;16.04;100.00
10310;BME280;5200;43.236;27.986;2023-04-01T14:13:56;98596.34;;;15.95;100.00
10310;BME280;5200;43.236;27.986;2023-04-01T14:16:58;98588.81;;;15.92;100.00
10310;BME280;5200;43.236;27.986;2023-04-01T14:19:40;98614.72;;;15.90;100.00
10310;BME280;5200;43.236;27.986;2023-04-01T14:22:20;98613.50;;;15.86;100.00
10310;BME280;5200;43.236;27.986;2023-04-01T14:25:10;98599.59;;;15.57;100.00
10310;BME280;5200;43.236;27.986;2023-04-01T14:27:56;98626.13;;;15.57;100.00
10310;BME280;5200;43.236;27.986;2023-04-01T14:30:35;98616.53;;;15.43;100.00
10310;BME280;5200;43.236;27.986;2023-04-01T14:33:18;98614.66;;;15.30;100.00
10310;BME280;5200;43.236;27.986;2023-04-01T14:35:59;98584.69;;;15.16;100.00
10310;BME280;5200;43.236;27.986;2023-04-01T14:38:42;98603.44;;;15.15;100.00
10310;BME280;5200;43.236;27.986;2023-04-01T14:41:20;98587.72;;;15.00;100.00
10310;BME280;5200;43.236;27.986;2023-04-01T14:44:15;98591.56;;;14.97;100.00
10310;BME280;5200;43.236;27.986;2023-04-01T14:49:47;98613.19;;;15.01;100.00